Terminal Aerodrome Forecast
Issued by NWS Atlanta, GA

Home | Current Version | Previous Version | Text Only | Print | Product List | Glossary On
Versions: 1 2 3 4 5 6 7 8 9 10 11 12 13 14 15 16 17 18 19 20 21 22 23 24 25 26 27 28 29 30
869
FTUS42 KFFC 170540
TAFAHN
TAF
KAHN 170540Z 1706/1806 29010KT 5SM -SN BR SCT010 BKN020 OVC050
      TEMPO 1706/1710 2SM -SN BR BKN008
     FM171300 29009KT P6SM FEW025
     FM171800 31012G22KT P6SM SKC
     FM180200 33010G18KT P6SM SKC=

USA.gov is the U.S. government's official web portal to all federal, state and local government web resources and services.